createdAt,value
2022-10-04T00:01:10.080Z,2.03
2022-10-04T00:04:01.992Z,1.45
2022-10-04T00:09:07.664Z,2.28
2022-10-04T00:11:43.682Z,1.30
2022-10-04T00:14:22.622Z,1.55
2022-10-04T00:16:49.942Z,1.40
2022-10-04T00:19:19.738Z,1.40
2022-10-04T00:21:52.673Z,1.77
2022-10-04T00:24:31.012Z,1.60
2022-10-04T00:27:20.119Z,1.30
2022-10-04T00:30:07.337Z,1.65
2022-10-04T00:32:40.457Z,1.45
2022-10-04T00:35:25.898Z,1.52
2022-10-04T00:38:13.480Z,1.50
2022-10-04T00:40:47.475Z,1.25
2022-10-04T00:43:23.012Z,1.30
2022-10-04T00:45:57.314Z,1.25
2022-10-04T00:48:39.878Z,1.40
2022-10-04T00:51:24.404Z,1.63
2022-10-04T00:54:26.029Z,1.30
2022-10-04T00:57:03.214Z,1.75
2022-10-04T00:59:53.960Z,1.08
2022-10-04T01:02:29.086Z,1.63
2022-10-04T01:05:07.405Z,1.23
2022-10-04T01:07:41.147Z,1.10
2022-10-04T01:10:12.570Z,1.60
2022-10-04T01:12:49.825Z,1.80
2022-10-04T01:15:23.175Z,1.50
2022-10-04T01:18:13.480Z,1.08
2022-10-04T01:20:58.061Z,1.60
2022-10-04T01:24:15.993Z,1.63
2022-10-04T01:26:45.319Z,1.30
2022-10-04T01:29:27.057Z,1.30
2022-10-04T01:34:25.059Z,1.65
2022-10-04T01:36:58.012Z,1.83
2022-10-04T01:39:27.145Z,1.30
2022-10-04T01:42:08.575Z,1.45
2022-10-04T01:45:01.178Z,1.80
2022-10-04T01:47:37.683Z,1.20
2022-10-04T01:50:15.868Z,1.10
2022-10-04T01:52:56.061Z,1.48
2022-10-04T01:55:34.327Z,1.50
2022-10-04T01:58:12.087Z,1.60
2022-10-04T02:00:45.917Z,1.52
2022-10-04T02:03:28.874Z,1.30
2022-10-04T02:06:00.629Z,1.02
2022-10-04T02:08:34.056Z,2.05
2022-10-04T02:11:03.183Z,1.23
2022-10-04T02:13:39.506Z,1.70
2022-10-04T02:16:12.011Z,1.20
2022-10-04T02:18:43.664Z,1.40
2022-10-04T02:21:11.944Z,1.70
2022-10-04T02:23:41.021Z,2.35
2022-10-04T02:26:10.461Z,1.40
2022-10-04T02:28:38.834Z,1.60
2022-10-04T02:31:26.916Z,1.13
2022-10-04T02:33:58.102Z,1.30
2022-10-04T02:36:28.657Z,1.27
2022-10-04T02:39:01.746Z,1.20
2022-10-04T02:41:33.868Z,1.30
2022-10-04T02:44:16.311Z,1.10
2022-10-04T02:46:53.906Z,1.10
2022-10-04T02:49:24.110Z,1.38
2022-10-04T02:52:10.116Z,1.25
2022-10-04T02:54:54.910Z,0.98
2022-10-04T02:57:24.110Z,1.27
2022-10-04T03:00:01.754Z,1.50
2022-10-04T03:02:30.883Z,1.10
2022-10-04T03:05:07.338Z,1.08
2022-10-04T03:07:36.375Z,1.13
2022-10-04T03:10:12.000Z,1.50
2022-10-04T03:12:42.585Z,1.80
2022-10-04T03:15:13.147Z,1.70
2022-10-04T03:17:43.629Z,1.50
2022-10-04T03:20:15.742Z,1.35
2022-10-04T03:22:47.109Z,1.70
2022-10-04T03:25:26.324Z,0.93
2022-10-04T03:28:00.335Z,1.65
2022-10-04T03:30:27.855Z,1.00
2022-10-04T03:32:55.032Z,1.23
2022-10-04T03:35:36.377Z,1.40
2022-10-04T03:38:09.014Z,1.67
2022-10-04T03:40:37.948Z,1.33
2022-10-04T03:43:05.794Z,1.50
2022-10-04T03:45:35.289Z,1.33
2022-10-04T03:48:06.627Z,1.48
2022-10-04T03:50:39.324Z,1.75
2022-10-04T03:53:11.982Z,1.23
2022-10-04T03:55:45.919Z,1.42
2022-10-04T03:58:18.043Z,1.25
2022-10-04T04:01:11.964Z,1.35
2022-10-04T04:04:01.839Z,1.33
2022-10-04T04:06:51.659Z,1.40
2022-10-04T04:09:36.359Z,1.70
2022-10-04T04:12:47.976Z,1.30
2022-10-04T04:15:16.010Z,2.22
2022-10-04T04:17:46.849Z,1.90
2022-10-04T04:20:30.645Z,3.20
2022-10-04T04:23:05.535Z,1.30
2022-10-04T04:25:38.229Z,1.90
2022-10-04T04:28:22.248Z,1.70
2022-10-04T04:30:51.831Z,1.80
2022-10-04T04:33:37.596Z,2.20
2022-10-04T04:36:06.993Z,1.48
2022-10-04T04:38:35.538Z,1.90
2022-10-04T04:41:11.162Z,1.83
2022-10-04T04:43:44.072Z,2.00
2022-10-04T04:46:28.394Z,1.50
2022-10-04T04:49:03.963Z,1.80
2022-10-04T04:51:33.165Z,1.40
2022-10-04T04:54:05.014Z,1.55
2022-10-04T04:56:32.776Z,1.77
2022-10-04T04:59:03.449Z,2.20
2022-10-04T05:01:41.860Z,1.80
2022-10-04T05:04:09.024Z,2.50
2022-10-04T05:06:38.145Z,1.80
2022-10-04T05:09:06.339Z,1.40
2022-10-04T05:11:36.438Z,1.45
2022-10-04T05:14:06.636Z,1.55
2022-10-04T05:16:36.382Z,1.38
2022-10-04T05:19:08.372Z,1.10
2022-10-04T05:21:39.695Z,1.83
2022-10-04T05:24:21.170Z,1.80
2022-10-04T05:26:57.726Z,1.80
2022-10-04T05:29:28.267Z,2.50
2022-10-04T05:32:23.165Z,1.75
2022-10-04T05:34:51.354Z,1.60
2022-10-04T05:37:44.503Z,1.67
2022-10-04T05:40:14.268Z,1.90
2022-10-04T05:42:45.624Z,2.10
2022-10-04T05:45:26.136Z,1.95
2022-10-04T05:47:55.462Z,2.53
2022-10-04T05:50:34.219Z,2.40
2022-10-04T05:53:33.110Z,2.05
2022-10-04T05:56:06.180Z,2.25
2022-10-04T05:59:17.896Z,3.00
2022-10-04T06:02:06.562Z,2.67
2022-10-04T06:05:00.926Z,2.65
2022-10-04T06:07:55.971Z,2.63
2022-10-04T06:10:41.756Z,2.95
2022-10-04T06:13:39.980Z,3.42
2022-10-04T06:16:38.303Z,2.65
2022-10-04T06:19:33.285Z,2.65
2022-10-04T06:22:19.666Z,2.13
2022-10-04T06:25:14.630Z,2.88
2022-10-04T06:28:08.619Z,3.17
2022-10-04T06:31:20.107Z,3.03
2022-10-04T06:33:47.139Z,2.65
2022-10-04T06:36:39.238Z,3.20
2022-10-04T06:39:11.959Z,3.00
2022-10-04T06:42:07.194Z,2.72
2022-10-04T06:44:55.465Z,2.35
2022-10-04T06:47:36.625Z,1.83
2022-10-04T06:50:23.589Z,1.70
2022-10-04T06:53:16.741Z,2.10
2022-10-04T06:55:44.176Z,2.50
2022-10-04T06:58:37.481Z,2.30
2022-10-04T07:01:32.020Z,2.90
2022-10-04T07:04:21.054Z,2.63
2022-10-04T07:07:22.970Z,2.55
2022-10-04T07:10:01.108Z,2.45
2022-10-04T07:12:29.160Z,2.35
2022-10-04T07:15:01.183Z,2.00
2022-10-04T07:17:37.723Z,2.20
2022-10-04T07:20:07.645Z,1.88
2022-10-04T07:22:37.779Z,2.50
2022-10-04T07:25:04.958Z,2.20
2022-10-04T07:28:10.680Z,2.22
2022-10-04T07:30:45.387Z,1.95
2022-10-04T07:33:17.279Z,2.15
2022-10-04T07:35:53.236Z,2.25
2022-10-04T07:38:26.942Z,2.13
2022-10-04T07:41:21.352Z,1.73
2022-10-04T07:43:56.235Z,2.10
2022-10-04T07:46:37.412Z,1.70
2022-10-04T07:49:04.925Z,1.92
2022-10-04T07:51:50.540Z,1.90
2022-10-04T07:54:48.548Z,2.28
2022-10-04T07:57:58.763Z,2.03
2022-10-04T08:00:36.941Z,1.65
2022-10-04T08:03:16.617Z,2.50
2022-10-04T08:05:52.551Z,2.30
2022-10-04T08:08:31.242Z,2.92
2022-10-04T08:10:58.148Z,2.10
2022-10-04T08:13:52.821Z,2.00
2022-10-04T08:16:36.913Z,2.28
2022-10-04T08:19:41.210Z,2.20
2022-10-04T08:22:33.342Z,2.00
2022-10-04T08:25:22.311Z,1.95
2022-10-04T08:28:43.368Z,2.47
2022-10-04T08:31:29.479Z,2.53
2022-10-04T08:34:00.264Z,2.47
2022-10-04T08:36:30.428Z,2.30
2022-10-04T08:38:58.819Z,1.88
2022-10-04T08:41:56.706Z,2.53
2022-10-04T08:44:48.156Z,2.10
2022-10-04T08:47:38.075Z,2.35
2022-10-04T08:50:35.970Z,1.73
2022-10-04T08:53:56.859Z,1.85
2022-10-04T08:56:39.014Z,1.95
2022-10-04T08:59:24.780Z,1.48
2022-10-04T09:01:58.751Z,1.83
2022-10-04T09:04:45.005Z,1.58
2022-10-04T09:07:27.021Z,1.67
2022-10-04T09:10:27.213Z,1.60
2022-10-04T09:13:10.993Z,1.20
2022-10-04T09:15:52.495Z,0.90
2022-10-04T09:18:38.236Z,1.00
2022-10-04T09:21:32.822Z,0.80
2022-10-04T09:24:21.316Z,1.17
2022-10-04T09:27:04.284Z,1.30
2022-10-04T09:30:06.562Z,1.25
2022-10-04T09:32:37.092Z,1.27
2022-10-04T09:35:15.940Z,1.40
2022-10-04T09:38:04.019Z,1.35
2022-10-04T09:41:00.283Z,1.02
2022-10-04T09:43:36.015Z,1.42
2022-10-04T09:46:30.289Z,1.60
2022-10-04T09:49:08.964Z,0.90
2022-10-04T09:51:49.210Z,1.08
2022-10-04T09:54:31.074Z,0.90
2022-10-04T09:59:54.272Z,0.90
2022-10-04T10:02:44.302Z,0.93
2022-10-04T10:05:35.292Z,0.75
2022-10-04T10:08:08.519Z,0.88
2022-10-04T10:11:07.839Z,0.60
2022-10-04T10:14:08.904Z,0.93
2022-10-04T10:17:04.115Z,0.98
2022-10-04T10:19:46.198Z,0.75
2022-10-04T10:22:16.297Z,1.30
2022-10-04T10:24:58.701Z,1.00
2022-10-04T10:27:39.167Z,0.70
2022-10-04T10:30:39.425Z,0.80
2022-10-04T10:33:26.089Z,0.98
2022-10-04T10:36:28.557Z,0.75
2022-10-04T10:39:16.012Z,1.10
2022-10-04T10:41:46.097Z,0.75
2022-10-04T10:44:56.330Z,0.82
2022-10-04T10:47:29.179Z,0.90
2022-10-04T10:50:28.909Z,0.90
2022-10-04T10:53:04.319Z,0.77
2022-10-04T10:56:11.585Z,0.70
2022-10-04T10:59:05.560Z,0.65
2022-10-04T11:02:05.424Z,0.70
2022-10-04T11:04:54.774Z,0.75
2022-10-04T11:07:55.337Z,0.60
2022-10-04T11:10:51.946Z,0.95
2022-10-04T11:14:03.895Z,0.90
2022-10-04T11:17:23.746Z,0.60
2022-10-04T11:20:15.795Z,0.75
2022-10-04T11:25:25.458Z,0.80
2022-10-04T11:28:02.941Z,0.50
2022-10-04T11:31:01.401Z,0.60
2022-10-04T11:33:56.302Z,1.00
2022-10-04T11:36:37.356Z,0.80
2022-10-04T11:39:21.575Z,1.00
2022-10-04T11:41:54.483Z,0.55
2022-10-04T11:44:21.541Z,0.70
2022-10-04T11:47:08.743Z,1.00
2022-10-04T11:49:44.658Z,0.70
2022-10-04T11:52:56.825Z,0.70
2022-10-04T11:55:26.307Z,0.70
2022-10-04T11:58:02.235Z,1.08
2022-10-04T12:00:58.047Z,0.68
2022-10-04T12:04:05.252Z,0.75
2022-10-04T12:07:10.449Z,0.75
2022-10-04T12:10:19.241Z,0.65
2022-10-04T12:12:47.273Z,0.88
2022-10-04T12:15:39.076Z,0.70
2022-10-04T12:18:33.352Z,0.80
2022-10-04T12:21:29.573Z,0.80
2022-10-04T12:24:14.685Z,0.60
2022-10-04T12:26:50.769Z,0.60
2022-10-04T12:29:30.590Z,0.70
2022-10-04T12:32:10.861Z,0.70
2022-10-04T12:35:07.115Z,0.65
2022-10-04T12:37:45.603Z,0.75
2022-10-04T12:40:12.536Z,0.90
2022-10-04T12:42:52.737Z,0.95
2022-10-04T12:45:47.892Z,0.63
2022-10-04T12:48:42.068Z,0.75
2022-10-04T12:51:21.745Z,0.73
2022-10-04T12:53:48.703Z,0.80
2022-10-04T12:56:28.731Z,0.70
2022-10-04T12:59:23.323Z,0.95
2022-10-04T13:02:21.714Z,0.80
2022-10-04T13:05:01.739Z,1.17
2022-10-04T13:07:43.966Z,0.75
2022-10-04T13:10:24.630Z,0.60
2022-10-04T13:13:05.284Z,0.70
2022-10-04T13:19:09.676Z,0.68
2022-10-04T13:21:36.956Z,0.75
2022-10-04T13:24:55.080Z,0.90
2022-10-04T13:27:28.740Z,0.60
2022-10-04T13:30:24.625Z,1.15
2022-10-04T13:33:12.594Z,0.82
2022-10-04T13:35:59.518Z,0.70
2022-10-04T13:39:07.569Z,0.70
2022-10-04T13:42:11.474Z,0.80
2022-10-04T13:44:45.365Z,0.93
2022-10-04T13:47:40.916Z,0.80
2022-10-04T13:50:26.017Z,1.20
2022-10-04T13:53:39.667Z,0.50
2022-10-04T13:56:36.968Z,0.77
2022-10-04T13:59:07.162Z,0.80
2022-10-04T14:02:01.357Z,0.70
2022-10-04T14:04:46.672Z,0.82
2022-10-04T14:07:41.185Z,0.73
2022-10-04T14:10:22.408Z,0.75
2022-10-04T14:12:49.321Z,0.80
2022-10-04T14:15:47.070Z,0.70
2022-10-04T14:19:00.136Z,0.70
2022-10-04T14:21:49.069Z,0.80
2022-10-04T14:24:38.952Z,1.20
2022-10-04T14:27:34.765Z,0.82
2022-10-04T14:30:01.795Z,1.02
2022-10-04T14:33:11.383Z,0.70
2022-10-04T14:36:01.969Z,0.88
2022-10-04T14:38:47.637Z,0.80
2022-10-04T14:41:51.855Z,0.90
2022-10-04T14:44:25.040Z,0.93
2022-10-04T14:47:02.555Z,0.60
2022-10-04T14:49:51.591Z,0.80
2022-10-04T14:52:34.142Z,0.73
2022-10-04T14:55:27.152Z,0.90
2022-10-04T14:58:20.493Z,0.70
2022-10-04T15:01:22.151Z,0.93
2022-10-04T15:04:13.715Z,0.60
2022-10-04T15:06:51.356Z,0.70
2022-10-04T15:09:43.455Z,1.00
2022-10-04T15:12:51.854Z,0.98
2022-10-04T15:15:21.617Z,0.80
2022-10-04T15:17:51.663Z,1.33
2022-10-04T15:20:25.299Z,1.10
2022-10-04T15:23:17.403Z,0.75
2022-10-04T15:25:48.133Z,0.95
2022-10-04T15:28:42.872Z,1.02
2022-10-04T15:31:34.642Z,1.58
2022-10-04T15:34:35.779Z,1.23
2022-10-04T15:37:28.175Z,4.15
2022-10-04T15:40:14.356Z,4.28
2022-10-04T15:42:55.943Z,2.70
2022-10-04T15:45:47.847Z,1.42
2022-10-04T15:51:23.099Z,0.93
2022-10-04T15:54:26.760Z,1.00
2022-10-04T15:57:00.448Z,1.20
2022-10-04T15:59:53.718Z,0.93
2022-10-04T16:02:42.054Z,1.27
2022-10-04T16:05:19.478Z,1.27
2022-10-04T16:07:59.259Z,1.33
2022-10-04T16:10:52.321Z,1.40
2022-10-04T16:13:43.303Z,1.20
2022-10-04T16:16:16.334Z,1.20
2022-10-04T16:19:15.804Z,0.98
2022-10-04T16:21:42.768Z,1.30
2022-10-04T16:24:40.045Z,1.00
2022-10-04T16:27:29.492Z,1.15
2022-10-04T16:30:26.594Z,1.30
2022-10-04T16:33:16.176Z,1.55
2022-10-04T16:35:49.780Z,1.50
2022-10-04T16:38:25.779Z,1.50
2022-10-04T16:40:52.739Z,1.35
2022-10-04T16:43:19.729Z,1.58
2022-10-04T16:46:18.215Z,1.13
2022-10-04T16:48:58.956Z,1.40
2022-10-04T16:51:50.482Z,2.05
2022-10-04T16:54:39.238Z,1.50
2022-10-04T16:57:22.758Z,1.20
2022-10-04T17:00:00.590Z,1.80
2022-10-04T17:02:39.229Z,1.90
2022-10-04T17:05:27.491Z,1.92
2022-10-04T17:08:05.447Z,1.27
2022-10-04T17:10:53.542Z,1.95
2022-10-04T17:13:35.336Z,1.88
2022-10-04T17:19:29.168Z,4.88
2022-10-04T17:22:06.960Z,4.53
2022-10-04T17:24:58.627Z,4.45
2022-10-04T17:27:45.382Z,4.22
2022-10-04T17:30:22.376Z,4.50
2022-10-04T17:32:57.035Z,4.32
2022-10-04T17:35:48.912Z,3.80
2022-10-04T17:38:25.100Z,3.90
2022-10-04T17:40:55.023Z,3.33
2022-10-04T17:43:43.215Z,3.45
2022-10-04T17:46:17.920Z,3.83
2022-10-04T17:49:35.760Z,4.63
2022-10-04T17:52:29.048Z,4.80
2022-10-04T17:55:18.528Z,5.05
2022-10-04T17:57:49.460Z,4.13
2022-10-04T18:00:26.445Z,3.85
2022-10-04T18:03:08.972Z,4.50
2022-10-04T18:05:55.314Z,4.07
2022-10-04T18:08:54.508Z,4.53
2022-10-04T18:11:50.847Z,4.13
2022-10-04T18:14:21.032Z,3.92
2022-10-04T18:16:57.226Z,4.00
2022-10-04T18:20:09.917Z,3.50
2022-10-04T18:22:50.418Z,2.80
2022-10-04T18:25:27.286Z,2.42
2022-10-04T18:28:11.688Z,2.63
2022-10-04T18:30:59.396Z,3.20
2022-10-04T18:33:46.952Z,3.38
2022-10-04T18:36:27.740Z,3.75
2022-10-04T18:39:19.444Z,7.05
2022-10-04T18:42:24.349Z,4.60
2022-10-04T18:45:01.983Z,3.83
2022-10-04T18:47:34.615Z,4.07
2022-10-04T18:50:14.079Z,4.10
2022-10-04T18:52:53.672Z,3.60
2022-10-04T18:55:29.978Z,5.25
2022-10-04T18:58:42.587Z,5.68
2022-10-04T19:01:56.211Z,4.85
2022-10-04T19:04:32.382Z,3.97
2022-10-04T19:07:40.456Z,3.25
2022-10-04T19:10:14.507Z,2.80
2022-10-04T19:12:57.087Z,3.10
2022-10-04T19:15:48.510Z,2.72
2022-10-04T19:18:36.693Z,2.55
2022-10-04T19:21:22.384Z,2.95
2022-10-04T19:24:16.962Z,2.35
2022-10-04T19:26:49.292Z,2.53
2022-10-04T19:29:35.517Z,2.85
2022-10-04T19:32:10.957Z,2.25
2022-10-04T19:35:19.929Z,1.98
2022-10-04T19:38:04.102Z,2.22
2022-10-04T19:40:45.291Z,2.40
2022-10-04T19:43:26.368Z,2.55
2022-10-04T19:46:21.882Z,2.17
2022-10-04T19:48:52.528Z,2.20
2022-10-04T19:51:30.228Z,1.70
2022-10-04T19:54:15.815Z,2.30
2022-10-04T19:56:52.830Z,2.20
2022-10-04T19:59:42.940Z,2.30
2022-10-04T20:02:12.155Z,1.95
2022-10-04T20:04:42.155Z,1.80
2022-10-04T20:07:15.427Z,2.30
2022-10-04T20:09:45.512Z,2.40
2022-10-04T20:12:33.086Z,2.25
2022-10-04T20:15:26.613Z,1.95
2022-10-04T20:17:56.291Z,2.53
2022-10-04T20:20:38.939Z,1.90
2022-10-04T20:23:10.563Z,2.58
2022-10-04T20:28:30.377Z,2.15
2022-10-04T20:30:59.489Z,2.70
2022-10-04T20:33:46.089Z,2.03
2022-10-04T20:36:41.556Z,1.70
2022-10-04T20:39:40.339Z,2.78
2022-10-04T20:42:27.201Z,3.80
2022-10-04T20:45:24.881Z,3.17
2022-10-04T20:47:57.888Z,3.10
2022-10-04T20:50:39.141Z,2.42
2022-10-04T20:53:15.009Z,3.28
2022-10-04T20:55:44.281Z,3.03
2022-10-04T20:58:35.265Z,2.80
2022-10-04T21:01:17.036Z,2.83
2022-10-04T21:06:12.195Z,2.40
2022-10-04T21:08:40.992Z,2.40
2022-10-04T21:11:20.947Z,2.13
2022-10-04T21:13:54.145Z,2.22
2022-10-04T21:16:34.849Z,1.88
2022-10-04T21:19:31.023Z,2.20
2022-10-04T21:21:59.750Z,1.80
2022-10-04T21:24:41.269Z,2.28
2022-10-04T21:27:24.804Z,2.10
2022-10-04T21:29:54.536Z,2.10
2022-10-04T21:32:22.658Z,2.17
2022-10-04T21:34:54.201Z,2.03
2022-10-04T21:37:21.850Z,2.70
2022-10-04T21:39:48.922Z,1.60
2022-10-04T21:42:16.144Z,2.17
2022-10-04T21:44:43.372Z,1.85
2022-10-04T21:47:11.062Z,1.70
2022-10-04T21:49:38.206Z,2.13
2022-10-04T21:52:05.733Z,2.10
2022-10-04T21:54:33.651Z,2.13
2022-10-04T21:57:00.673Z,1.88
2022-10-04T21:59:27.710Z,2.00
2022-10-04T22:01:54.718Z,1.88
2022-10-04T22:04:21.829Z,1.85
2022-10-04T22:06:49.224Z,2.05
2022-10-04T22:09:16.410Z,2.08
2022-10-04T22:11:43.495Z,1.95
2022-10-04T22:14:10.563Z,2.28
2022-10-04T22:16:37.664Z,1.85
2022-10-04T22:19:04.910Z,1.88
2022-10-04T22:21:32.057Z,1.60
2022-10-04T22:23:59.716Z,1.88
2022-10-04T22:26:27.295Z,1.90
2022-10-04T22:28:56.014Z,1.73
2022-10-04T22:31:27.430Z,1.80
2022-10-04T22:33:54.858Z,2.40
2022-10-04T22:36:27.517Z,1.63
2022-10-04T22:39:04.295Z,1.95
2022-10-04T22:41:42.602Z,1.83
2022-10-04T22:44:19.782Z,1.80
2022-10-04T22:46:53.050Z,1.75
2022-10-04T22:49:26.154Z,1.70
2022-10-04T22:51:55.814Z,2.17
2022-10-04T22:54:25.980Z,1.70
2022-10-04T22:56:53.581Z,2.20
2022-10-04T22:59:23.127Z,1.90
2022-10-04T23:01:50.090Z,1.70
2022-10-04T23:04:25.506Z,1.35
2022-10-04T23:06:53.574Z,1.38
2022-10-04T23:09:20.939Z,1.85
2022-10-04T23:11:47.890Z,1.55
2022-10-04T23:14:15.215Z,1.60
2022-10-04T23:16:43.581Z,1.75
2022-10-04T23:19:13.495Z,1.80
2022-10-04T23:21:45.178Z,2.13
2022-10-04T23:24:21.832Z,2.25
2022-10-04T23:26:58.242Z,1.90
2022-10-04T23:29:31.915Z,2.10
2022-10-04T23:31:58.929Z,2.03
2022-10-04T23:34:38.029Z,1.70
2022-10-04T23:37:18.175Z,1.67
2022-10-04T23:39:45.781Z,1.92
2022-10-04T23:42:23.329Z,1.60
2022-10-04T23:44:51.583Z,1.83
2022-10-04T23:47:20.150Z,1.98
2022-10-04T23:49:50.144Z,2.00
2022-10-04T23:52:21.928Z,1.90
2022-10-04T23:54:50.706Z,2.15
2022-10-04T23:57:26.204Z,2.15
2022-10-04T23:59:53.509Z,1.63
